createdAt,value
2022-12-06T00:01:32.157Z,20.57
2022-12-06T00:04:02.543Z,18.03
2022-12-06T00:06:30.833Z,17.27
2022-12-06T00:08:58.385Z,14.60
2022-12-06T00:11:27.337Z,14.57
2022-12-06T00:13:56.173Z,17.55
2022-12-06T00:16:24.099Z,17.13
2022-12-06T00:18:51.947Z,17.83
2022-12-06T00:21:23.011Z,15.07
2022-12-06T00:23:58.487Z,16.27
2022-12-06T00:26:26.189Z,18.97
2022-12-06T00:28:55.043Z,17.00
2022-12-06T00:31:23.252Z,22.40
2022-12-06T00:33:51.061Z,18.60
2022-12-06T00:36:24.177Z,20.53
2022-12-06T00:38:51.824Z,21.37
2022-12-06T00:41:20.562Z,21.23
2022-12-06T00:43:48.049Z,18.67
2022-12-06T00:46:20.237Z,16.37
2022-12-06T00:48:47.863Z,17.33
2022-12-06T00:51:15.921Z,19.33
2022-12-06T00:53:43.664Z,16.23
2022-12-06T00:56:11.118Z,18.17
2022-12-06T00:58:38.514Z,14.73
2022-12-06T01:01:23.150Z,16.17
2022-12-06T01:03:54.409Z,19.27
2022-12-06T01:06:23.500Z,21.87
2022-12-06T01:08:50.885Z,18.70
2022-12-06T01:11:18.271Z,15.13
2022-12-06T01:13:45.951Z,20.87
2022-12-06T01:16:17.211Z,17.00
2022-12-06T01:18:44.711Z,20.83
2022-12-06T01:21:17.454Z,24.67
2022-12-06T01:23:45.086Z,19.77
2022-12-06T01:26:16.006Z,20.70
2022-12-06T01:28:43.565Z,19.40
2022-12-06T01:31:11.093Z,19.63
2022-12-06T01:33:38.744Z,17.40
2022-12-06T01:36:06.367Z,21.30
2022-12-06T01:38:33.721Z,19.03
2022-12-06T01:41:01.390Z,18.00
2022-12-06T01:43:32.967Z,15.50
2022-12-06T01:46:24.724Z,19.13
2022-12-06T01:48:54.958Z,19.63
2022-12-06T01:51:22.555Z,17.43
2022-12-06T01:53:49.868Z,16.93
2022-12-06T01:56:17.243Z,19.20
2022-12-06T01:58:44.859Z,17.43
2022-12-06T02:01:12.502Z,20.57
2022-12-06T02:03:40.169Z,16.00
2022-12-06T02:06:08.513Z,16.30
2022-12-06T02:08:35.900Z,19.77
2022-12-06T02:11:03.785Z,19.03
2022-12-06T02:13:31.734Z,15.73
2022-12-06T02:16:12.249Z,15.87
2022-12-06T02:19:24.237Z,14.95
2022-12-06T02:22:20.797Z,16.20
2022-12-06T02:25:04.617Z,17.10
2022-12-06T02:27:34.915Z,15.38
2022-12-06T02:30:25.193Z,18.87
2022-12-06T02:33:05.742Z,16.50
2022-12-06T02:35:41.139Z,20.60
2022-12-06T02:38:29.617Z,18.62
2022-12-06T02:40:58.789Z,14.27
2022-12-06T02:43:32.159Z,18.10
2022-12-06T02:45:59.862Z,17.37
2022-12-06T02:48:27.275Z,18.63
2022-12-06T02:51:00.181Z,18.60
2022-12-06T02:53:28.389Z,16.67
2022-12-06T02:55:55.736Z,17.07
2022-12-06T02:58:23.101Z,16.70
2022-12-06T03:00:52.474Z,16.33
2022-12-06T03:04:00.250Z,19.07
2022-12-06T03:06:41.375Z,16.17
2022-12-06T03:09:34.742Z,19.80
2022-12-06T03:12:05.070Z,21.60
2022-12-06T03:14:38.524Z,20.63
2022-12-06T03:17:16.705Z,18.73
2022-12-06T03:19:44.154Z,20.70
2022-12-06T03:22:20.128Z,26.90
2022-12-06T03:24:47.487Z,19.30
2022-12-06T03:27:16.755Z,19.27
2022-12-06T03:29:46.604Z,17.70
2022-12-06T03:32:14.370Z,19.27
2022-12-06T03:34:44.254Z,19.73
2022-12-06T03:37:14.468Z,20.90
2022-12-06T03:39:48.491Z,22.10
2022-12-06T03:42:15.788Z,16.07
2022-12-06T03:44:43.487Z,21.67
2022-12-06T03:47:42.009Z,18.43
2022-12-06T03:50:13.582Z,18.47
2022-12-06T03:52:40.921Z,18.77
2022-12-06T03:55:08.656Z,18.43
2022-12-06T03:57:36.409Z,19.40
2022-12-06T04:00:04.821Z,18.83
2022-12-06T04:02:38.836Z,16.90
2022-12-06T04:05:06.566Z,18.50
2022-12-06T04:07:33.942Z,15.87
2022-12-06T04:10:04.446Z,18.60
2022-12-06T04:12:51.659Z,16.43
2022-12-06T04:15:19.667Z,19.30
2022-12-06T04:18:06.201Z,19.27
2022-12-06T04:20:53.647Z,20.05
2022-12-06T04:23:21.562Z,19.40
2022-12-06T04:25:48.966Z,18.60
2022-12-06T04:28:35.089Z,17.97
2022-12-06T04:34:09.321Z,24.60
2022-12-06T04:36:58.396Z,24.87
2022-12-06T04:39:25.782Z,22.30
2022-12-06T04:42:12.177Z,20.67
2022-12-06T04:44:39.558Z,20.23
2022-12-06T04:47:07.470Z,19.77
2022-12-06T04:49:34.844Z,18.20
2022-12-06T04:52:02.273Z,16.53
2022-12-06T04:54:30.331Z,16.37
2022-12-06T04:56:58.108Z,15.53
2022-12-06T04:59:26.193Z,18.17
2022-12-06T05:01:53.854Z,14.43
2022-12-06T05:04:21.240Z,14.53
2022-12-06T05:06:48.782Z,17.20
2022-12-06T05:09:16.367Z,19.87
2022-12-06T05:11:43.732Z,18.13
2022-12-06T05:14:11.065Z,21.30
2022-12-06T05:16:38.810Z,21.17
2022-12-06T05:19:06.218Z,18.43
2022-12-06T05:21:33.533Z,21.53
2022-12-06T05:24:01.292Z,19.70
2022-12-06T05:26:28.972Z,17.90
2022-12-06T05:28:56.497Z,18.93
2022-12-06T05:31:24.993Z,15.40
2022-12-06T05:33:52.380Z,15.02
2022-12-06T05:36:21.728Z,16.47
2022-12-06T05:38:51.572Z,18.53
2022-12-06T05:41:20.162Z,19.60
2022-12-06T05:43:47.504Z,16.17
2022-12-06T05:46:15.202Z,17.20
2022-12-06T05:48:42.572Z,17.48
2022-12-06T05:51:09.929Z,15.17
2022-12-06T05:53:37.666Z,17.07
2022-12-06T05:56:09.695Z,15.70
2022-12-06T05:58:37.230Z,16.60
2022-12-06T06:01:05.880Z,13.03
2022-12-06T06:03:33.711Z,14.05
2022-12-06T06:06:01.567Z,15.70
2022-12-06T06:08:29.156Z,14.70
2022-12-06T06:10:56.985Z,15.90
2022-12-06T06:13:24.324Z,20.67
2022-12-06T06:15:51.696Z,18.35
2022-12-06T06:18:19.314Z,16.75
2022-12-06T06:20:54.456Z,15.30
2022-12-06T06:23:22.095Z,16.03
2022-12-06T06:25:49.584Z,17.43
2022-12-06T06:28:17.455Z,14.80
2022-12-06T06:30:45.155Z,18.03
2022-12-06T06:33:12.554Z,15.10
2022-12-06T06:35:40.233Z,16.20
2022-12-06T06:38:07.953Z,14.80
2022-12-06T06:40:35.405Z,18.77
2022-12-06T06:43:18.171Z,14.43
2022-12-06T06:45:56.214Z,15.00
2022-12-06T06:48:24.243Z,15.33
2022-12-06T06:50:57.014Z,14.37
2022-12-06T06:53:27.544Z,15.83
2022-12-06T06:55:55.352Z,14.33
2022-12-06T06:58:22.967Z,13.87
2022-12-06T07:00:58.065Z,17.50
2022-12-06T07:03:25.822Z,13.70
2022-12-06T07:05:53.674Z,26.13
2022-12-06T07:08:21.199Z,18.07
2022-12-06T07:10:48.982Z,15.57
2022-12-06T07:13:17.171Z,15.23
2022-12-06T07:15:44.674Z,11.33
2022-12-06T07:18:12.345Z,11.73
2022-12-06T07:20:39.691Z,13.50
2022-12-06T07:23:07.053Z,13.17
2022-12-06T07:25:34.663Z,14.43
2022-12-06T07:28:02.167Z,15.27
2022-12-06T07:30:29.515Z,16.30
2022-12-06T07:32:57.476Z,16.87
2022-12-06T07:35:42.039Z,15.47
2022-12-06T07:38:13.259Z,13.70
2022-12-06T07:41:03.535Z,16.87
2022-12-06T07:43:47.200Z,18.58
2022-12-06T07:46:14.641Z,17.83
2022-12-06T07:48:42.359Z,13.73
2022-12-06T07:51:09.703Z,11.77
2022-12-06T07:53:37.263Z,12.20
2022-12-06T07:56:08.369Z,9.73
2022-12-06T07:58:35.721Z,8.23
2022-12-06T08:01:04.426Z,12.13
2022-12-06T08:03:32.218Z,9.00
2022-12-06T08:05:59.638Z,7.63
2022-12-06T08:08:29.020Z,8.63
2022-12-06T08:11:04.524Z,6.00
2022-12-06T08:13:31.960Z,10.37
2022-12-06T08:15:59.711Z,6.47
2022-12-06T08:18:27.163Z,5.27
2022-12-06T08:20:54.596Z,5.43
2022-12-06T08:23:22.201Z,5.43
2022-12-06T08:25:58.984Z,10.73
2022-12-06T08:28:26.705Z,5.07
2022-12-06T08:30:57.068Z,6.30
2022-12-06T08:33:29.240Z,12.70
2022-12-06T08:35:56.696Z,8.47
2022-12-06T08:38:24.079Z,9.03
2022-12-06T08:40:51.696Z,9.07
2022-12-06T08:43:19.070Z,6.03
2022-12-06T08:45:51.225Z,7.20
2022-12-06T08:48:19.093Z,5.30
2022-12-06T08:50:46.407Z,4.13
2022-12-06T08:53:15.987Z,4.83
2022-12-06T08:55:58.753Z,5.37
2022-12-06T08:58:29.703Z,5.00
2022-12-06T09:00:57.479Z,5.03
2022-12-06T09:03:24.802Z,5.20
2022-12-06T09:05:52.151Z,5.03
2022-12-06T09:08:20.380Z,5.27
2022-12-06T09:10:47.888Z,5.33
2022-12-06T09:13:15.217Z,5.23
2022-12-06T09:15:42.926Z,4.10
2022-12-06T09:18:10.280Z,5.43
2022-12-06T09:20:41.176Z,6.90
2022-12-06T09:23:08.935Z,5.80
2022-12-06T09:25:36.303Z,3.80
2022-12-06T09:28:03.804Z,3.60
2022-12-06T09:30:31.649Z,5.73
2022-12-06T09:32:59.020Z,4.73
2022-12-06T09:35:26.477Z,4.17
2022-12-06T09:37:54.336Z,4.37
2022-12-06T09:40:32.372Z,5.63
2022-12-06T09:43:22.320Z,7.03
2022-12-06T09:46:28.811Z,4.67
2022-12-06T09:49:22.673Z,3.97
2022-12-06T09:52:19.808Z,5.03
2022-12-06T09:55:06.744Z,2.70
2022-12-06T09:58:06.809Z,3.87
2022-12-06T10:00:44.300Z,3.20
2022-12-06T10:03:37.789Z,2.17
2022-12-06T10:06:12.219Z,3.87
2022-12-06T10:08:58.698Z,2.67
2022-12-06T10:12:03.963Z,2.42
2022-12-06T10:15:07.420Z,3.87
2022-12-06T10:17:52.590Z,3.73
2022-12-06T10:20:28.844Z,3.40
2022-12-06T10:23:19.939Z,3.58
2022-12-06T10:26:22.525Z,4.50
2022-12-06T10:28:56.295Z,2.67
2022-12-06T10:31:28.524Z,3.27
2022-12-06T10:34:23.097Z,3.23
2022-12-06T10:37:22.414Z,3.67
2022-12-06T10:40:03.485Z,3.43
2022-12-06T10:42:44.268Z,3.23
2022-12-06T10:45:36.279Z,2.90
2022-12-06T10:48:08.082Z,3.33
2022-12-06T10:50:35.747Z,4.00
2022-12-06T10:53:05.883Z,4.53
2022-12-06T10:55:41.706Z,3.83
2022-12-06T10:58:27.729Z,3.17
2022-12-06T11:00:58.988Z,5.82
2022-12-06T11:03:35.541Z,4.70
2022-12-06T11:06:07.115Z,3.93
2022-12-06T11:08:37.203Z,4.60
2022-12-06T11:11:05.627Z,3.27
2022-12-06T11:13:37.651Z,4.10
2022-12-06T11:16:22.562Z,4.97
2022-12-06T11:18:49.929Z,4.13
2022-12-06T11:21:22.276Z,3.43
2022-12-06T11:24:03.825Z,3.40
2022-12-06T11:26:37.525Z,3.87
2022-12-06T11:29:07.947Z,5.03
2022-12-06T11:31:48.899Z,3.47
2022-12-06T11:34:20.795Z,3.50
2022-12-06T11:36:51.959Z,8.47
2022-12-06T11:39:22.802Z,5.97
2022-12-06T11:41:53.023Z,5.30
2022-12-06T11:44:23.192Z,7.70
2022-12-06T11:46:57.707Z,3.83
2022-12-06T11:49:39.287Z,5.97
2022-12-06T11:52:41.807Z,7.80
2022-12-06T11:55:17.827Z,4.37
2022-12-06T11:57:49.796Z,4.43
2022-12-06T12:00:19.121Z,4.13
2022-12-06T12:02:47.958Z,3.97
2022-12-06T12:05:41.596Z,3.70
2022-12-06T12:08:18.827Z,2.93
2022-12-06T12:10:46.589Z,3.43
2022-12-06T12:13:32.752Z,4.70
2022-12-06T12:16:01.640Z,3.72
2022-12-06T12:18:34.743Z,3.47
2022-12-06T12:21:02.069Z,3.10
2022-12-06T12:23:43.128Z,2.93
2022-12-06T12:26:18.366Z,3.87
2022-12-06T12:29:02.621Z,2.83
2022-12-06T12:31:30.216Z,5.67
2022-12-06T12:34:26.682Z,6.07
2022-12-06T12:37:01.590Z,4.22
2022-12-06T12:39:38.995Z,7.70
2022-12-06T12:42:27.940Z,10.37
2022-12-06T12:44:59.026Z,8.03
2022-12-06T12:47:26.744Z,11.13
2022-12-06T12:50:22.383Z,6.90
2022-12-06T12:52:50.132Z,3.12
2022-12-06T12:55:30.399Z,3.97
2022-12-06T12:57:59.161Z,4.50
2022-12-06T13:00:28.619Z,3.60
2022-12-06T13:03:01.070Z,3.40
2022-12-06T13:05:33.925Z,3.70
2022-12-06T13:08:27.179Z,4.10
2022-12-06T13:10:59.148Z,3.03
2022-12-06T13:13:28.191Z,4.73
2022-12-06T13:15:57.113Z,4.20
2022-12-06T13:18:27.500Z,3.33
2022-12-06T13:20:57.188Z,3.53
2022-12-06T13:23:29.456Z,6.10
2022-12-06T13:26:23.568Z,3.87
2022-12-06T13:28:53.566Z,4.63
2022-12-06T13:31:23.004Z,4.83
2022-12-06T13:33:59.115Z,4.80
2022-12-06T13:36:26.780Z,5.75
2022-12-06T13:38:56.111Z,5.13
2022-12-06T13:41:49.123Z,4.90
2022-12-06T13:44:39.205Z,5.70
2022-12-06T13:47:48.378Z,3.93
2022-12-06T13:50:18.567Z,3.73
2022-12-06T13:52:45.729Z,3.90
2022-12-06T13:55:25.276Z,5.17
2022-12-06T13:57:55.520Z,3.87
2022-12-06T14:00:31.518Z,4.27
2022-12-06T14:03:02.693Z,8.80
2022-12-06T14:06:06.052Z,5.80
2022-12-06T14:08:40.695Z,6.93
2022-12-06T14:11:27.380Z,9.57
2022-12-06T14:13:55.113Z,7.70
2022-12-06T14:16:39.182Z,6.33
2022-12-06T14:19:23.221Z,6.33
2022-12-06T14:22:02.596Z,6.83
2022-12-06T14:24:31.918Z,8.10
2022-12-06T14:27:04.578Z,8.53
2022-12-06T14:29:33.131Z,8.47
2022-12-06T14:32:00.519Z,6.57
2022-12-06T14:34:32.539Z,8.30
2022-12-06T14:37:03.244Z,8.23
2022-12-06T14:39:31.275Z,10.50
2022-12-06T14:42:22.653Z,9.87
2022-12-06T14:44:53.291Z,6.50
2022-12-06T14:47:23.059Z,6.90
2022-12-06T14:50:16.432Z,8.30
2022-12-06T14:53:02.456Z,7.07
2022-12-06T14:55:34.561Z,6.03
2022-12-06T14:58:10.920Z,6.70
2022-12-06T15:03:05.754Z,6.10
2022-12-06T15:05:36.996Z,5.30
2022-12-06T15:08:26.732Z,6.40
2022-12-06T15:10:57.309Z,6.90
2022-12-06T15:13:25.118Z,6.40
2022-12-06T15:16:04.296Z,7.93
2022-12-06T15:18:36.908Z,6.17
2022-12-06T15:21:18.828Z,7.60
2022-12-06T15:23:50.269Z,8.00
2022-12-06T15:26:18.039Z,10.37
2022-12-06T15:28:45.603Z,9.10
2022-12-06T15:31:23.039Z,8.50
2022-12-06T15:33:50.699Z,9.50
2022-12-06T15:36:22.841Z,7.17
2022-12-06T15:38:50.426Z,12.47
2022-12-06T15:41:21.225Z,13.07
2022-12-06T15:43:53.345Z,11.50
2022-12-06T15:46:23.685Z,11.40
2022-12-06T15:48:53.052Z,17.37
2022-12-06T15:51:24.770Z,11.53
2022-12-06T15:53:52.616Z,12.30
2022-12-06T15:56:23.979Z,15.00
2022-12-06T15:58:51.713Z,10.77
2022-12-06T16:01:21.604Z,12.30
2022-12-06T16:03:54.142Z,13.27
2022-12-06T16:06:22.453Z,12.30
2022-12-06T16:08:50.068Z,10.67
2022-12-06T16:11:20.392Z,14.77
2022-12-06T16:13:47.780Z,9.50
2022-12-06T16:16:16.527Z,12.13
2022-12-06T16:18:44.072Z,12.07
2022-12-06T16:21:22.105Z,12.70
2022-12-06T16:24:13.068Z,17.33
2022-12-06T16:26:42.425Z,14.60
2022-12-06T16:29:20.963Z,9.77
2022-12-06T16:31:48.671Z,10.60
2022-12-06T16:34:16.500Z,7.67
2022-12-06T16:37:13.039Z,5.87
2022-12-06T16:39:40.786Z,6.13
2022-12-06T16:42:08.138Z,7.67
2022-12-06T16:44:50.803Z,7.03
2022-12-06T16:47:18.539Z,7.97
2022-12-06T16:49:48.011Z,6.33
2022-12-06T16:52:16.279Z,7.17
2022-12-06T16:54:44.026Z,8.07
2022-12-06T16:57:11.663Z,7.50
2022-12-06T16:59:39.097Z,8.13
2022-12-06T17:02:30.739Z,11.77
2022-12-06T17:05:01.233Z,11.53
2022-12-06T17:07:29.492Z,13.93
2022-12-06T17:09:56.816Z,14.37
2022-12-06T17:12:24.215Z,16.90
2022-12-06T17:14:51.888Z,11.80
2022-12-06T17:17:21.315Z,10.93
2022-12-06T17:19:49.052Z,11.90
2022-12-06T17:22:16.769Z,22.37
2022-12-06T17:24:44.402Z,25.53
2022-12-06T17:27:14.783Z,26.17
2022-12-06T17:29:43.600Z,18.90
2022-12-06T17:32:11.835Z,21.33
2022-12-06T17:34:39.256Z,19.97
2022-12-06T17:37:06.841Z,22.20
2022-12-06T17:39:34.210Z,20.50
2022-12-06T17:42:20.397Z,33.90
2022-12-06T17:44:48.001Z,38.72
2022-12-06T17:47:15.325Z,26.77
2022-12-06T17:49:42.927Z,15.87
2022-12-06T17:52:12.066Z,14.30
2022-12-06T17:54:39.506Z,16.77
2022-12-06T17:57:06.840Z,14.10
2022-12-06T17:59:34.423Z,15.60
2022-12-06T18:02:18.174Z,14.80
2022-12-06T18:04:47.355Z,14.60
2022-12-06T18:07:15.089Z,11.67
2022-12-06T18:09:42.497Z,11.60
2022-12-06T18:12:10.851Z,16.17
2022-12-06T18:14:38.243Z,11.20
2022-12-06T18:17:05.626Z,13.67
2022-12-06T18:19:33.601Z,12.83
2022-12-06T18:22:00.938Z,14.57
2022-12-06T18:24:33.623Z,11.37
2022-12-06T18:27:04.517Z,13.43
2022-12-06T18:29:32.053Z,14.13
2022-12-06T18:31:59.448Z,12.13
2022-12-06T18:34:27.238Z,13.77
2022-12-06T18:36:54.583Z,10.40
2022-12-06T18:39:24.842Z,10.73
2022-12-06T18:41:53.158Z,19.27
2022-12-06T18:44:20.617Z,10.33
2022-12-06T18:46:48.089Z,11.23
2022-12-06T18:49:15.735Z,10.97
2022-12-06T18:51:43.083Z,13.03
2022-12-06T18:54:10.784Z,12.57
2022-12-06T18:56:38.401Z,11.13
2022-12-06T18:59:07.035Z,11.43
2022-12-06T19:01:38.666Z,12.60
2022-12-06T19:04:07.408Z,15.90
2022-12-06T19:06:35.905Z,11.77
2022-12-06T19:09:07.733Z,13.27
2022-12-06T19:11:39.050Z,14.63
2022-12-06T19:14:06.489Z,16.47
2022-12-06T19:16:41.418Z,21.77
2022-12-06T19:19:16.625Z,14.10
2022-12-06T19:21:47.398Z,13.07
2022-12-06T19:24:16.767Z,10.87
2022-12-06T19:26:44.473Z,10.33
2022-12-06T19:29:12.924Z,10.83
2022-12-06T19:31:40.531Z,11.63
2022-12-06T19:34:22.636Z,12.43
2022-12-06T19:36:51.375Z,10.03
2022-12-06T19:39:19.427Z,13.03
2022-12-06T19:42:05.811Z,11.70
2022-12-06T19:44:33.694Z,13.57
2022-12-06T19:47:01.042Z,21.97
2022-12-06T19:49:28.664Z,16.70
2022-12-06T19:51:56.289Z,18.23
2022-12-06T19:54:28.315Z,21.00
2022-12-06T19:56:57.154Z,17.97
2022-12-06T19:59:25.816Z,20.10
2022-12-06T20:01:54.170Z,23.03
2022-12-06T20:04:23.172Z,22.00
2022-12-06T20:06:51.220Z,26.20
2022-12-06T20:09:19.526Z,40.10
2022-12-06T20:12:07.394Z,45.30
2022-12-06T20:14:36.193Z,35.30
2022-12-06T20:17:08.980Z,35.67
2022-12-06T20:19:37.261Z,34.73
2022-12-06T20:22:04.906Z,38.70
2022-12-06T20:24:32.650Z,32.33
2022-12-06T20:26:59.979Z,34.27
2022-12-06T20:29:27.597Z,37.00
2022-12-06T20:31:56.046Z,33.37
2022-12-06T20:34:23.418Z,38.40
2022-12-06T20:36:51.009Z,35.00
2022-12-06T20:39:20.894Z,35.40
2022-12-06T20:41:48.483Z,26.50
2022-12-06T20:44:16.386Z,27.73
2022-12-06T20:46:44.093Z,22.80
2022-12-06T20:49:11.492Z,22.77
2022-12-06T20:51:39.139Z,20.27
2022-12-06T20:54:06.714Z,22.73
2022-12-06T20:56:35.722Z,24.30
2022-12-06T20:59:04.269Z,19.93
2022-12-06T21:01:34.053Z,22.23
2022-12-06T21:04:01.432Z,17.97
2022-12-06T21:06:29.129Z,18.70
2022-12-06T21:08:56.562Z,18.97
2022-12-06T21:11:24.908Z,16.37
2022-12-06T21:13:53.719Z,20.73
2022-12-06T21:16:22.935Z,16.10
2022-12-06T21:19:00.928Z,20.00
2022-12-06T21:21:30.730Z,16.67
2022-12-06T21:24:01.716Z,13.60
2022-12-06T21:26:29.727Z,32.33
2022-12-06T21:28:57.328Z,34.00
2022-12-06T21:31:51.009Z,33.20
2022-12-06T21:34:18.575Z,25.80
2022-12-06T21:36:45.920Z,21.37
2022-12-06T21:39:13.399Z,20.57
2022-12-06T21:41:41.166Z,18.10
2022-12-06T21:44:08.546Z,20.07
2022-12-06T21:46:35.928Z,18.83
2022-12-06T21:49:03.729Z,16.20
2022-12-06T21:51:31.474Z,17.17
2022-12-06T21:53:58.845Z,17.63
2022-12-06T21:56:28.083Z,16.37
2022-12-06T21:58:55.543Z,14.90
2022-12-06T22:01:25.490Z,14.13
2022-12-06T22:03:53.918Z,18.40
2022-12-06T22:06:21.399Z,15.40
2022-12-06T22:08:48.942Z,17.57
2022-12-06T22:11:18.342Z,14.97
2022-12-06T22:13:46.890Z,15.33
2022-12-06T22:16:14.338Z,14.73
2022-12-06T22:18:45.587Z,14.03
2022-12-06T22:21:18.946Z,15.40
2022-12-06T22:23:46.898Z,17.30
2022-12-06T22:26:16.048Z,15.77
2022-12-06T22:28:43.444Z,16.90
2022-12-06T22:31:11.952Z,17.17
2022-12-06T22:33:39.543Z,15.23
2022-12-06T22:36:07.296Z,16.17
2022-12-06T22:38:34.937Z,18.13
2022-12-06T22:41:02.363Z,16.10
2022-12-06T22:43:29.776Z,15.60
2022-12-06T22:46:06.619Z,15.80
2022-12-06T22:48:33.973Z,15.13
2022-12-06T22:51:11.601Z,14.80
2022-12-06T22:53:43.215Z,16.50
2022-12-06T22:56:11.034Z,17.67
2022-12-06T22:58:38.521Z,20.50
2022-12-06T23:01:16.055Z,15.47
2022-12-06T23:03:45.477Z,15.53
2022-12-06T23:06:13.880Z,16.37
2022-12-06T23:08:41.520Z,16.47
2022-12-06T23:11:11.435Z,16.07
2022-12-06T23:13:38.773Z,20.77
2022-12-06T23:16:07.811Z,15.57
2022-12-06T23:18:35.505Z,15.87
2022-12-06T23:21:11.705Z,18.37
2022-12-06T23:23:40.045Z,15.95
2022-12-06T23:26:09.100Z,15.77
2022-12-06T23:28:36.527Z,15.47
2022-12-06T23:31:11.859Z,16.20
2022-12-06T23:33:39.253Z,14.50
2022-12-06T23:36:07.933Z,15.47
2022-12-06T23:38:35.606Z,15.17
2022-12-06T23:41:07.312Z,14.47
2022-12-06T23:43:35.429Z,14.40
2022-12-06T23:46:07.471Z,14.20
2022-12-06T23:48:35.707Z,14.27
2022-12-06T23:51:13.850Z,18.53
2022-12-06T23:53:41.939Z,15.33
2022-12-06T23:56:11.033Z,16.37
2022-12-06T23:58:38.460Z,18.43
